Time;durP1;ratioP1;P1;durP2;ratioP2;P2;SDS_P1;SDS_P2;PMS_P1;PMS_P2;Temp;Humidity;BMP_temperature;BMP_pressure;BME280_temperature;BME280_humidity;BME280_pressure;Samples;Min_cycle;Max_cycle;Signal;HPM_P1;HPM_P2
2022/03/23 00:00:29;;;;;;;20.27;4.37;;;24.30;75.00;;;;;;5033952;28;20219;-82
2022/03/23 00:02:56;;;;;;;17.77;4.43;;;24.10;74.60;;;;;;5047744;28;20675;-78
2022/03/23 00:05:25;;;;;;;19.77;4.30;;;24.10;74.90;;;;;;5037591;28;20189;-80
2022/03/23 00:07:52;;;;;;;17.97;4.40;;;24.20;75.20;;;;;;5041954;28;20212;-78
2022/03/23 00:10:20;;;;;;;12.77;4.23;;;24.30;74.90;;;;;;5033391;28;20177;-84
2022/03/23 00:12:47;;;;;;;17.83;4.50;;;24.40;74.20;;;;;;5049412;28;20180;-77
2022/03/23 00:15:18;;;;;;;15.30;4.60;;;24.40;73.50;;;;;;5046380;28;20686;-83
2022/03/23 00:17:46;;;;;;;19.93;4.40;;;24.30;73.10;;;;;;5045628;28;20230;-79
2022/03/23 00:20:15;;;;;;;21.53;4.07;;;24.20;72.90;;;;;;5050451;28;20184;-80
2022/03/23 00:22:42;;;;;;;14.80;3.50;;;24.50;72.00;;;;;;5033181;28;20172;-79
2022/03/23 00:25:10;;;;;;;17.97;3.37;;;24.50;72.00;;;;;;5049797;28;20186;-76
2022/03/23 00:27:37;;;;;;;24.87;3.67;;;24.50;72.10;;;;;;5052271;28;20187;-77
2022/03/23 00:30:06;;;;;;;18.97;4.03;;;24.40;71.90;;;;;;5050229;28;20210;-80
2022/03/23 00:32:33;;;;;;;14.53;3.87;;;24.40;71.80;;;;;;5050574;28;20185;-80
2022/03/23 00:35:02;;;;;;;20.97;3.90;;;24.30;71.70;;;;;;5042471;28;20208;-81
2022/03/23 00:37:30;;;;;;;12.43;3.47;;;24.30;71.90;;;;;;5037281;28;20215;-75
2022/03/23 00:39:58;;;;;;;10.90;3.43;;;24.40;71.50;;;;;;5033518;28;20181;-81
2022/03/23 00:42:25;;;;;;;17.80;3.53;;;24.50;71.30;;;;;;5051706;28;20650;-79
2022/03/23 00:44:53;;;;;;;17.93;4.37;;;24.50;70.90;;;;;;5051929;28;20740;-80
2022/03/23 00:47:20;;;;;;;14.60;4.33;;;24.60;70.70;;;;;;5042771;28;20182;-81
2022/03/23 00:49:47;;;;;;;18.10;3.47;;;24.60;68.70;;;;;;5044963;28;20192;-78
2022/03/23 00:52:15;;;;;;;13.20;3.47;;;24.50;69.00;;;;;;5046356;28;20642;-82
2022/03/23 00:54:42;;;;;;;18.20;3.77;;;24.70;69.30;;;;;;5042198;28;20187;-76
2022/03/23 00:57:09;;;;;;;14.37;3.43;;;25.10;68.80;;;;;;5045379;28;20179;-78
2022/03/23 00:59:37;;;;;;;19.30;3.83;;;25.20;67.90;;;;;;5045273;28;20639;-81
2022/03/23 01:02:05;;;;;;;13.80;3.37;;;25.10;66.70;;;;;;5049306;28;20577;-79
2022/03/23 01:04:33;;;;;;;21.77;4.10;;;25.20;67.40;;;;;;5052377;28;20211;-77
2022/03/23 01:07:01;;;;;;;11.10;3.73;;;25.50;66.50;;;;;;5047537;28;20219;-82
2022/03/23 01:09:29;;;;;;;17.10;3.60;;;25.80;66.50;;;;;;5047705;28;20191;-83
2022/03/23 01:11:57;;;;;;;10.27;3.13;;;25.80;65.00;;;;;;5049742;28;20304;-77
2022/03/23 01:14:26;;;;;;;12.97;3.03;;;25.80;65.20;;;;;;5051759;28;20245;-77
2022/03/23 01:16:54;;;;;;;10.10;3.67;;;25.40;66.00;;;;;;5051958;28;20237;-77
2022/03/23 01:19:25;;;;;;;12.43;4.10;;;25.20;67.60;;;;;;5050534;28;20184;-77
2022/03/23 01:21:53;;;;;;;14.47;4.83;;;25.30;68.30;;;;;;5049536;28;20183;-78
2022/03/23 01:24:21;;;;;;;15.00;5.97;;;25.10;69.90;;;;;;5049628;28;20207;-78
2022/03/23 01:26:49;;;;;;;16.37;5.40;;;24.80;70.60;;;;;;5041221;28;20586;-78
2022/03/23 01:29:16;;;;;;;17.83;5.00;;;24.60;71.00;;;;;;5048722;28;20186;-79
2022/03/23 01:31:43;;;;;;;12.03;4.93;;;24.70;71.20;;;;;;5052298;28;20238;-78
2022/03/23 01:34:11;;;;;;;12.60;4.60;;;24.60;71.50;;;;;;5052153;28;20184;-78
2022/03/23 01:36:39;;;;;;;13.07;5.50;;;24.60;71.20;;;;;;5048587;28;20283;-80
2022/03/23 01:39:06;;;;;;;21.03;9.33;;;24.50;71.20;;;;;;5051868;28;20207;-79
2022/03/23 01:41:38;;;;;;;12.33;5.03;;;24.60;72.10;;;;;;5044715;28;20312;-82
2022/03/23 01:44:17;;;;;;;14.93;5.80;;;24.60;71.40;;;;;;5047781;28;20219;-74
2022/03/23 01:47:01;;;;;;;14.47;5.37;;;24.60;71.40;;;;;;5051150;28;20172;-77
2022/03/23 01:49:28;;;;;;;18.23;5.53;;;24.60;71.70;;;;;;5048336;28;20861;-78
2022/03/23 01:51:55;;;;;;;18.10;6.10;;;24.30;72.50;;;;;;5051469;28;20182;-81
2022/03/23 01:54:23;;;;;;;19.83;5.67;;;24.20;73.00;;;;;;5050996;28;20198;-78
2022/03/23 01:56:51;;;;;;;13.83;5.33;;;24.10;73.10;;;;;;5049540;28;20263;-81
2022/03/23 01:59:18;;;;;;;13.77;4.93;;;24.00;73.20;;;;;;5051306;28;20179;-80
2022/03/23 02:01:46;;;;;;;15.13;5.23;;;24.10;73.00;;;;;;5055223;28;20234;-80
2022/03/23 02:04:14;;;;;;;19.17;5.67;;;24.20;73.00;;;;;;5054834;28;20220;-79
2022/03/23 02:06:41;;;;;;;13.27;4.77;;;24.10;72.80;;;;;;5052175;28;20717;-77
2022/03/23 02:09:08;;;;;;;12.17;5.10;;;24.10;72.60;;;;;;5050783;28;20210;-80
2022/03/23 02:11:37;;;;;;;16.03;4.37;;;24.20;72.60;;;;;;5055069;28;20179;-77
2022/03/23 02:14:05;;;;;;;15.63;4.40;;;24.30;72.50;;;;;;5062119;28;20185;-74
2022/03/23 02:16:46;;;;;;;16.40;5.33;;;24.40;72.10;;;;;;5042588;28;20180;-76
2022/03/23 02:19:14;;;;;;;20.47;4.40;;;24.60;71.80;;;;;;5038568;28;20181;-80
2022/03/23 02:21:48;;;;;;;13.20;4.40;;;24.80;70.20;;;;;;5040196;28;20180;-79
2022/03/23 02:24:16;;;;;;;13.23;4.40;;;24.60;70.40;;;;;;5046781;28;20231;-80
2022/03/23 02:26:44;;;;;;;12.10;4.17;;;24.60;70.80;;;;;;5046198;28;20202;-84
2022/03/23 02:29:11;;;;;;;12.53;3.90;;;24.30;71.20;;;;;;5053204;28;20317;-78
2022/03/23 02:31:38;;;;;;;22.57;4.03;;;24.30;71.60;;;;;;5044094;28;20705;-86
2022/03/23 02:34:06;;;;;;;13.80;3.50;;;24.50;71.60;;;;;;5052062;28;20221;-81
2022/03/23 02:36:33;;;;;;;17.23;4.03;;;24.30;70.90;;;;;;5056003;28;20251;-80
2022/03/23 02:39:01;;;;;;;13.37;3.80;;;24.20;71.30;;;;;;5053729;28;20178;-76
2022/03/23 02:41:28;;;;;;;16.30;3.60;;;24.40;70.10;;;;;;5054922;28;20187;-78
2022/03/23 02:43:56;;;;;;;12.13;4.90;;;24.60;70.00;;;;;;5046287;28;20242;-77
2022/03/23 02:46:24;;;;;;;11.20;3.67;;;24.60;70.10;;;;;;5037480;28;20184;-84
2022/03/23 02:48:56;;;;;;;14.60;3.67;;;24.50;70.00;;;;;;5050814;28;20180;-77
2022/03/23 02:51:24;;;;;;;12.70;2.97;;;24.30;70.80;;;;;;5054863;28;20188;-82
2022/03/23 03:02:37;;;;;;;18.37;3.33;;;23.90;70.90;;;;;;5042415;28;20249;-81
2022/03/23 03:05:07;;;;;;;15.13;3.00;;;24.10;70.30;;;;;;5053661;28;20187;-77
2022/03/23 03:10:22;;;;;;;9.57;2.77;;;23.80;71.10;;;;;;5054192;28;20665;-79
2022/03/23 03:12:51;;;;;;;10.83;3.10;;;23.70;70.50;;;;;;5050958;28;20615;-85
2022/03/23 03:15:21;;;;;;;16.47;2.50;;;23.80;70.80;;;;;;5050161;28;20260;-79
2022/03/23 03:17:48;;;;;;;11.37;2.40;;;23.80;70.20;;;;;;5048177;28;20555;-83
2022/03/23 03:20:17;;;;;;;10.63;2.73;;;23.90;69.90;;;;;;5041819;28;20621;-78
2022/03/23 03:22:46;;;;;;;18.43;2.53;;;24.20;69.40;;;;;;5044262;28;20187;-77
2022/03/23 03:25:16;;;;;;;19.93;2.90;;;24.30;68.70;;;;;;5052049;28;20177;-78
2022/03/23 03:27:45;;;;;;;9.67;2.53;;;24.40;68.40;;;;;;5053428;28;20386;-78
2022/03/23 03:30:14;;;;;;;9.23;2.30;;;24.40;68.00;;;;;;5046206;28;20289;-81
2022/03/23 03:32:43;;;;;;;13.03;2.70;;;24.30;68.70;;;;;;5049455;28;20183;-77
2022/03/23 03:35:11;;;;;;;7.87;2.37;;;24.30;68.50;;;;;;5045930;28;20267;-77
2022/03/23 03:37:39;;;;;;;14.57;2.80;;;24.10;68.10;;;;;;5053291;28;20188;-80
2022/03/23 03:40:07;;;;;;;13.63;2.17;;;23.80;68.90;;;;;;5052993;28;20600;-83
2022/03/23 03:42:36;;;;;;;15.70;2.50;;;23.90;68.70;;;;;;5043080;28;20203;-80
2022/03/23 03:45:05;;;;;;;15.90;2.57;;;24.00;69.10;;;;;;5037595;28;20642;-79
2022/03/23 03:47:33;;;;;;;13.27;2.53;;;24.00;69.20;;;;;;5055583;28;20176;-81
2022/03/23 03:50:00;;;;;;;11.47;2.50;;;24.20;68.30;;;;;;5056514;28;20222;-78
2022/03/23 03:52:28;;;;;;;13.23;2.23;;;24.00;68.50;;;;;;5038541;28;20204;-77
2022/03/23 03:54:55;;;;;;;10.43;2.57;;;24.00;68.80;;;;;;5043748;28;20649;-79
2022/03/23 03:57:23;;;;;;;16.70;2.53;;;24.20;68.30;;;;;;5044744;28;20275;-79
2022/03/23 03:59:50;;;;;;;16.33;2.70;;;24.30;68.20;;;;;;5043791;28;20187;-79
2022/03/23 04:02:19;;;;;;;17.60;2.40;;;24.20;68.40;;;;;;5048569;28;20180;-78
2022/03/23 04:04:50;;;;;;;13.03;2.93;;;24.30;68.40;;;;;;5052732;28;20211;-82
2022/03/23 04:07:17;;;;;;;11.70;2.37;;;24.30;68.00;;;;;;5046937;28;20231;-81
2022/03/23 04:09:45;;;;;;;13.70;3.07;;;24.30;67.70;;;;;;5051913;28;20233;-79
2022/03/23 04:12:12;;;;;;;8.40;2.37;;;24.30;67.90;;;;;;5052565;28;20837;-82
2022/03/23 04:14:40;;;;;;;13.70;2.50;;;24.10;68.60;;;;;;5052353;28;20626;-79
2022/03/23 04:17:07;;;;;;;15.13;2.50;;;24.10;69.00;;;;;;5049644;28;20275;-79
2022/03/23 04:19:34;;;;;;;8.63;2.17;;;24.20;69.10;;;;;;5053474;28;20646;-79
2022/03/23 04:22:02;;;;;;;10.10;1.90;;;24.10;69.50;;;;;;5052786;28;20286;-78
2022/03/23 04:24:29;;;;;;;10.13;2.33;;;24.00;69.10;;;;;;5053075;28;20212;-85
2022/03/23 04:26:57;;;;;;;15.10;2.60;;;23.80;69.40;;;;;;5051152;28;20680;-81
2022/03/23 04:29:26;;;;;;;13.60;2.60;;;23.70;69.70;;;;;;5048572;28;20269;-78
2022/03/23 04:31:54;;;;;;;15.67;2.60;;;23.70;70.10;;;;;;5035876;28;20183;-81
2022/03/23 04:34:21;;;;;;;11.17;2.30;;;23.60;70.30;;;;;;5042866;28;20563;-79
2022/03/23 04:36:49;;;;;;;14.70;3.03;;;23.50;70.30;;;;;;5050828;28;20180;-79
2022/03/23 04:39:16;;;;;;;13.10;2.13;;;23.50;70.70;;;;;;5044848;28;20168;-78
2022/03/23 04:41:43;;;;;;;12.67;2.83;;;23.60;69.90;;;;;;5049289;28;20176;-76
2022/03/23 04:44:11;;;;;;;11.83;2.53;;;23.50;68.90;;;;;;5046003;28;20235;-77
2022/03/23 04:46:39;;;;;;;9.07;2.10;;;23.70;68.90;;;;;;5046586;28;20258;-81
2022/03/23 04:49:06;;;;;;;10.97;3.00;;;24.00;67.80;;;;;;5050654;28;20176;-78
2022/03/23 04:51:33;;;;;;;15.60;2.87;;;25.00;65.00;;;;;;5049082;28;20627;-77
2022/03/23 04:54:02;;;;;;;11.47;2.53;;;25.80;61.60;;;;;;5048728;28;20184;-82
2022/03/23 04:56:30;;;;;;;8.33;2.13;;;25.70;62.20;;;;;;5043737;28;20267;-76
2022/03/23 04:58:59;;;;;;;11.43;2.17;;;25.30;63.40;;;;;;5041825;28;20183;-80
2022/03/23 05:01:27;;;;;;;11.20;2.03;;;24.80;63.60;;;;;;5051775;28;20207;-77
2022/03/23 05:03:57;;;;;;;12.23;2.20;;;24.60;64.90;;;;;;5050758;28;20250;-77
2022/03/23 05:06:24;;;;;;;9.73;1.90;;;24.60;65.20;;;;;;5051614;28;20223;-81
2022/03/23 05:08:51;;;;;;;8.20;1.87;;;24.60;65.60;;;;;;5052192;28;20230;-78
2022/03/23 05:11:19;;;;;;;9.73;2.13;;;24.50;65.40;;;;;;5052952;28;20195;-77
2022/03/23 05:13:46;;;;;;;7.40;2.00;;;24.20;66.70;;;;;;5052875;28;20176;-83
2022/03/23 05:16:14;;;;;;;9.67;2.23;;;24.00;66.80;;;;;;5052941;28;20326;-79
2022/03/23 05:18:42;;;;;;;7.13;1.67;;;23.80;68.00;;;;;;5051763;28;20587;-77
2022/03/23 05:21:10;;;;;;;7.83;2.30;;;23.80;68.00;;;;;;5051601;28;20172;-76
2022/03/23 05:23:37;;;;;;;11.73;2.30;;;23.80;68.10;;;;;;5052092;28;20215;-76
2022/03/23 05:26:04;;;;;;;9.87;2.00;;;24.00;67.00;;;;;;5051788;28;20183;-76
2022/03/23 05:28:32;;;;;;;12.93;2.80;;;24.00;67.40;;;;;;5050072;28;20215;-79
2022/03/23 05:30:59;;;;;;;15.20;2.30;;;23.90;67.90;;;;;;5054401;28;20168;-77
2022/03/23 05:33:27;;;;;;;7.60;2.07;;;23.70;68.00;;;;;;5051056;28;20687;-75
2022/03/23 05:35:54;;;;;;;11.63;2.20;;;23.50;68.70;;;;;;5052034;28;20321;-80
2022/03/23 05:38:22;;;;;;;12.63;2.87;;;23.40;68.90;;;;;;5050973;28;20190;-76
2022/03/23 05:40:50;;;;;;;9.60;2.03;;;23.50;69.50;;;;;;5051010;28;20212;-77
2022/03/23 05:43:19;;;;;;;11.50;2.40;;;23.40;69.30;;;;;;5050761;28;20223;-78
2022/03/23 05:45:47;;;;;;;12.83;2.33;;;23.30;69.70;;;;;;5044485;28;20179;-77
2022/03/23 05:48:14;;;;;;;14.57;2.37;;;23.30;70.60;;;;;;5047738;28;20266;-75
2022/03/23 05:50:42;;;;;;;11.30;2.63;;;23.20;71.00;;;;;;5042107;28;20192;-75
2022/03/23 05:53:09;;;;;;;11.97;2.17;;;23.20;71.00;;;;;;5045726;28;20539;-78
2022/03/23 05:55:37;;;;;;;11.40;2.20;;;23.10;71.70;;;;;;5052346;28;20172;-78
2022/03/23 05:58:04;;;;;;;11.07;2.57;;;23.10;72.10;;;;;;5054632;28;20188;-76
2022/03/23 06:00:33;;;;;;;15.47;2.40;;;23.10;72.30;;;;;;5052527;28;20212;-80
2022/03/23 06:03:01;;;;;;;16.90;2.33;;;23.10;72.10;;;;;;5041644;28;20509;-82
2022/03/23 06:05:28;;;;;;;14.47;3.00;;;23.20;71.90;;;;;;5054671;28;20184;-79
2022/03/23 06:07:56;;;;;;;15.00;2.60;;;23.20;71.50;;;;;;5047615;28;20754;-78
2022/03/23 06:10:23;;;;;;;13.17;2.70;;;23.00;71.90;;;;;;5055898;28;20269;-78
2022/03/23 06:12:51;;;;;;;11.83;2.73;;;23.10;71.80;;;;;;5052478;28;20188;-81
2022/03/23 06:15:18;;;;;;;16.43;2.30;;;23.00;71.40;;;;;;5056112;28;20172;-80
2022/03/23 06:17:45;;;;;;;13.03;2.80;;;23.00;71.80;;;;;;5049292;28;20206;-79
2022/03/23 06:20:14;;;;;;;7.77;2.07;;;22.90;72.00;;;;;;5053967;28;20245;-78
2022/03/23 06:22:42;;;;;;;19.43;3.30;;;22.80;71.90;;;;;;5055161;28;20188;-80
2022/03/23 06:25:10;;;;;;;18.73;2.73;;;22.90;72.10;;;;;;5049481;28;20673;-78
2022/03/23 06:27:38;;;;;;;14.30;3.00;;;22.80;72.20;;;;;;5055872;28;20562;-79
2022/03/23 06:30:07;;;;;;;11.73;2.40;;;22.80;72.50;;;;;;5055546;28;20189;-79
2022/03/23 06:32:34;;;;;;;23.13;2.90;;;22.80;72.50;;;;;;5054810;28;20188;-81
2022/03/23 06:35:03;;;;;;;23.60;3.43;;;22.80;72.70;;;;;;5051761;28;20191;-81
2022/03/23 06:37:33;;;;;;;18.53;2.77;;;22.80;72.70;;;;;;5052590;28;20221;-76
2022/03/23 06:40:00;;;;;;;16.27;3.10;;;22.70;73.00;;;;;;5046856;28;20208;-78
2022/03/23 06:42:28;;;;;;;20.07;4.77;;;22.80;72.90;;;;;;5042314;28;20184;-80
2022/03/23 06:44:55;;;;;;;22.07;9.90;;;22.80;72.60;;;;;;5036220;28;20306;-77
2022/03/23 06:47:23;;;;;;;12.13;2.93;;;22.70;73.00;;;;;;5039642;28;20317;-78
2022/03/23 06:49:50;;;;;;;14.57;2.73;;;22.70;73.00;;;;;;5055002;28;20184;-82
2022/03/23 06:52:18;;;;;;;13.90;3.03;;;22.50;73.10;;;;;;5047531;28;20654;-81
2022/03/23 06:54:45;;;;;;;17.70;3.17;;;22.50;73.10;;;;;;5052974;28;20180;-80
2022/03/23 06:57:13;;;;;;;14.20;2.83;;;22.50;73.30;;;;;;5054753;28;20251;-81
2022/03/23 06:59:40;;;;;;;15.30;3.00;;;22.50;73.10;;;;;;5051150;28;20597;-76
2022/03/23 07:02:10;;;;;;;10.97;2.77;;;22.40;73.40;;;;;;5048661;28;20196;-77
2022/03/23 07:04:37;;;;;;;12.97;2.40;;;22.50;73.30;;;;;;5048392;28;20782;-76
2022/03/23 07:07:05;;;;;;;11.13;2.53;;;22.50;73.50;;;;;;5050884;28;20204;-78
2022/03/23 07:09:33;;;;;;;16.90;3.40;;;22.50;73.50;;;;;;5031872;28;20181;-77
2022/03/23 07:12:05;;;;;;;15.37;3.37;;;22.50;73.30;;;;;;5034700;28;20179;-83
2022/03/23 07:14:34;;;;;;;15.77;2.80;;;22.40;73.10;;;;;;5044223;28;20220;-76
2022/03/23 07:17:02;;;;;;;14.63;3.07;;;22.40;73.60;;;;;;5047026;28;20206;-77
2022/03/23 07:19:29;;;;;;;20.67;3.53;;;22.40;73.50;;;;;;5053788;28;20210;-77
2022/03/23 07:21:57;;;;;;;14.33;2.67;;;22.40;73.60;;;;;;5051768;28;20302;-77
2022/03/23 07:24:25;;;;;;;16.33;2.83;;;22.40;73.70;;;;;;5035689;28;20291;-77
2022/03/23 07:26:52;;;;;;;18.27;3.77;;;22.40;73.80;;;;;;5040517;28;20610;-76
2022/03/23 07:29:20;;;;;;;18.60;3.30;;;22.50;73.70;;;;;;5042382;28;20176;-78
2022/03/23 07:31:47;;;;;;;17.87;3.10;;;22.60;73.70;;;;;;5034834;28;20176;-76
2022/03/23 07:34:18;;;;;;;15.07;3.07;;;22.50;74.10;;;;;;5051657;28;20191;-77
2022/03/23 07:36:48;;;;;;;20.13;3.30;;;22.40;74.10;;;;;;5051721;28;20184;-80
2022/03/23 07:39:20;;;;;;;19.40;3.60;;;22.50;74.10;;;;;;5052486;28;20191;-78
2022/03/23 07:41:52;;;;;;;17.93;3.07;;;22.40;74.30;;;;;;5052013;28;20268;-76
2022/03/23 07:44:21;;;;;;;17.73;2.67;;;22.40;74.40;;;;;;5041575;28;20253;-81
2022/03/23 07:46:48;;;;;;;20.13;3.60;;;22.30;74.20;;;;;;5049498;28;20226;-75
2022/03/23 07:49:16;;;;;;;23.20;3.60;;;22.30;74.40;;;;;;5046593;28;20208;-79
2022/03/23 07:51:43;;;;;;;18.23;3.40;;;22.30;74.20;;;;;;5047939;28;20510;-80
2022/03/23 07:54:11;;;;;;;17.10;3.00;;;22.30;74.30;;;;;;5046807;28;20596;-79
2022/03/23 07:56:38;;;;;;;12.83;2.80;;;22.30;74.30;;;;;;5048973;28;20631;-79
2022/03/23 07:59:06;;;;;;;19.63;3.67;;;22.20;74.60;;;;;;5048966;28;20175;-76
2022/03/23 08:01:33;;;;;;;17.70;3.23;;;22.20;74.80;;;;;;5047632;28;20296;-77
2022/03/23 08:04:01;;;;;;;18.53;3.80;;;22.20;74.80;;;;;;5047767;28;20219;-75
2022/03/23 08:06:29;;;;;;;16.17;3.33;;;22.20;74.50;;;;;;5049090;28;20229;-78
2022/03/23 08:08:57;;;;;;;19.33;3.70;;;22.20;74.60;;;;;;5044002;28;20623;-76
2022/03/23 08:11:24;;;;;;;15.57;3.40;;;22.20;74.40;;;;;;5052297;28;20237;-79
2022/03/23 08:13:52;;;;;;;21.27;4.47;;;22.20;74.60;;;;;;5051435;28;20702;-80
2022/03/23 08:16:19;;;;;;;17.67;3.80;;;22.20;74.80;;;;;;5048862;28;20188;-78
2022/03/23 08:18:47;;;;;;;16.80;4.97;;;22.10;75.20;;;;;;5045805;28;20192;-79
2022/03/23 08:21:17;;;;;;;16.40;4.63;;;22.10;75.50;;;;;;5039988;28;20270;-76
2022/03/23 08:23:45;;;;;;;19.70;3.27;;;22.00;75.90;;;;;;5042002;28;20625;-80
2022/03/23 08:26:16;;;;;;;18.20;3.03;;;21.90;76.10;;;;;;5049276;28;20246;-75
2022/03/23 08:28:45;;;;;;;22.27;4.03;;;21.80;76.60;;;;;;5045571;28;20172;-78
2022/03/23 08:31:12;;;;;;;26.70;3.60;;;21.70;77.90;;;;;;5037313;28;20658;-77
2022/03/23 08:33:41;;;;;;;24.90;3.43;;;21.50;79.40;;;;;;5049328;28;20266;-77
2022/03/23 08:36:09;;;;;;;29.23;4.43;;;21.40;80.00;;;;;;5050485;28;20218;-77
2022/03/23 08:38:37;;;;;;;21.07;4.30;;;21.30;80.80;;;;;;5039960;28;20188;-78
2022/03/23 08:41:06;;;;;;;21.87;4.30;;;21.10;80.90;;;;;;5052460;28;20183;-77
2022/03/23 08:43:34;;;;;;;15.37;4.40;;;21.10;81.30;;;;;;5043067;28;20243;-85
2022/03/23 08:46:01;;;;;;;19.03;5.70;;;21.10;81.40;;;;;;5051765;28;20190;-79
2022/03/23 08:48:28;;;;;;;25.60;5.27;;;21.00;81.80;;;;;;5051561;28;20320;-78
2022/03/23 08:50:56;;;;;;;15.60;4.13;;;21.00;81.30;;;;;;5045582;28;20212;-78
2022/03/23 08:53:26;;;;;;;23.00;4.47;;;21.00;81.40;;;;;;5043348;28;20184;-78
2022/03/23 08:55:54;;;;;;;29.93;6.10;;;21.00;81.40;;;;;;5045350;28;20689;-81
2022/03/23 08:58:21;;;;;;;22.37;6.07;;;20.90;81.60;;;;;;5045131;28;21220;-75
2022/03/23 09:00:49;;;;;;;24.87;6.77;;;20.90;81.50;;;;;;5046166;28;20196;-79
2022/03/23 09:03:16;;;;;;;17.17;4.07;;;20.90;81.30;;;;;;5037354;28;20203;-75
2022/03/23 09:05:44;;;;;;;24.47;5.27;;;21.00;81.60;;;;;;5049908;28;20229;-77
2022/03/23 09:08:12;;;;;;;24.73;4.87;;;20.90;81.10;;;;;;5036156;28;20188;-74
2022/03/23 09:10:39;;;;;;;20.20;6.10;;;21.00;80.90;;;;;;5039699;28;20215;-75
2022/03/23 09:13:07;;;;;;;19.53;3.90;;;20.90;80.80;;;;;;5052926;28;20195;-78
2022/03/23 09:15:34;;;;;;;19.80;4.37;;;20.90;81.00;;;;;;5046404;28;20188;-78
2022/03/23 09:18:03;;;;;;;25.03;3.60;;;20.80;80.80;;;;;;5041279;28;20186;-76
2022/03/23 09:20:32;;;;;;;21.23;4.50;;;20.80;80.50;;;;;;5051076;28;20631;-79
2022/03/23 09:22:59;;;;;;;30.40;8.67;;;20.90;80.40;;;;;;5051119;28;20322;-74
2022/03/23 09:25:27;;;;;;;27.17;6.60;;;20.90;80.00;;;;;;5044812;28;20200;-75
2022/03/23 09:27:55;;;;;;;18.57;4.07;;;20.90;79.30;;;;;;5041059;28;20631;-77
2022/03/23 09:30:22;;;;;;;21.47;4.57;;;20.90;79.30;;;;;;5052685;28;20189;-79
2022/03/23 09:32:50;;;;;;;22.97;3.97;;;20.90;79.60;;;;;;5051909;28;20251;-74
2022/03/23 09:35:18;;;;;;;23.73;4.10;;;20.90;79.30;;;;;;5052828;28;20631;-78
2022/03/23 09:37:48;;;;;;;24.27;4.00;;;20.90;79.20;;;;;;5050789;28;20179;-77
2022/03/23 09:40:20;;;;;;;24.03;4.30;;;20.90;78.50;;;;;;5046708;28;20301;-80
2022/03/23 09:42:48;;;;;;;21.00;4.50;;;21.00;78.20;;;;;;5042461;28;20659;-75
2022/03/23 09:45:46;;;;;;;25.23;4.70;;;21.00;78.00;;;;;;5041366;28;20216;-76
2022/03/23 09:48:09;;;;;;;21.37;4.30;;;21.00;77.80;;;;;;5040386;28;20587;-77
2022/03/23 09:50:39;;;;;;;23.40;4.63;;;21.00;78.40;;;;;;5037037;28;20666;-77
2022/03/23 09:53:07;;;;;;;20.03;4.20;;;21.00;77.90;;;;;;5041198;28;20184;-75
2022/03/23 09:55:36;;;;;;;24.50;4.20;;;20.90;77.70;;;;;;5041882;28;20724;-77
2022/03/23 09:58:06;;;;;;;16.93;4.00;;;21.00;76.40;;;;;;5051226;28;20176;-81
2022/03/23 10:00:41;;;;;;;25.57;4.47;;;21.00;75.90;;;;;;5053529;28;20692;-78
2022/03/23 10:03:16;;;;;;;20.23;4.23;;;21.00;75.80;;;;;;5051368;28;20262;-79
2022/03/23 10:06:04;;;;;;;26.90;4.77;;;21.10;76.40;;;;;;5052025;28;20198;-78
2022/03/23 10:09:02;;;;;;;22.83;4.37;;;21.00;76.90;;;;;;5051024;28;20199;-80
2022/03/23 10:12:05;;;;;;;22.33;4.60;;;20.90;76.20;;;;;;5052584;28;20944;-76
2022/03/23 10:15:06;;;;;;;24.67;4.27;;;21.00;75.00;;;;;;5052671;28;20654;-77
2022/03/23 10:17:38;;;;;;;23.77;4.17;;;21.10;73.90;;;;;;5032666;28;20184;-78
2022/03/23 10:20:06;;;;;;;19.13;3.70;;;21.10;73.20;;;;;;5045259;28;20184;-82
2022/03/23 10:22:33;;;;;;;19.00;3.80;;;21.20;73.00;;;;;;5039424;28;20231;-76
2022/03/23 10:25:10;;;;;;;19.17;3.80;;;21.20;72.30;;;;;;5054475;28;20727;-75
2022/03/23 10:27:38;;;;;;;24.73;4.20;;;21.20;72.00;;;;;;5036053;28;20172;-76
2022/03/23 10:30:06;;;;;;;27.27;4.63;;;21.30;72.40;;;;;;5046480;28;20183;-79
2022/03/23 10:32:37;;;;;;;22.03;4.90;;;21.30;72.20;;;;;;5035977;28;20177;-78
2022/03/23 10:35:10;;;;;;;17.93;4.30;;;21.30;71.30;;;;;;5046975;28;20185;-76
2022/03/23 10:37:37;;;;;;;29.60;6.77;;;21.30;71.20;;;;;;5032545;28;20527;-77
2022/03/23 10:40:08;;;;;;;23.37;4.73;;;21.30;70.80;;;;;;5048707;28;20266;-79
2022/03/23 10:42:38;;;;;;;18.73;5.03;;;21.30;70.70;;;;;;5046268;28;20567;-75
2022/03/23 10:45:22;;;;;;;24.60;5.03;;;21.30;70.70;;;;;;5054684;28;20234;-74
2022/03/23 10:47:50;;;;;;;26.87;4.40;;;21.30;70.40;;;;;;5038853;28;20190;-79
2022/03/23 10:50:19;;;;;;;22.97;4.33;;;21.30;69.80;;;;;;5053733;28;20176;-75
2022/03/23 10:52:51;;;;;;;20.20;3.73;;;21.30;69.90;;;;;;5050483;28;20203;-75
2022/03/23 10:55:19;;;;;;;17.60;3.47;;;21.30;69.50;;;;;;5046689;28;20215;-77
2022/03/23 10:57:53;;;;;;;19.27;4.43;;;21.40;69.40;;;;;;5043000;28;20173;-79
2022/03/23 11:00:30;;;;;;;21.17;4.20;;;21.40;69.50;;;;;;5049543;28;20646;-76
2022/03/23 11:02:59;;;;;;;22.13;4.43;;;21.30;69.40;;;;;;5044197;28;20255;-75
2022/03/23 11:05:39;;;;;;;17.40;4.07;;;21.40;68.90;;;;;;5052590;28;20196;-77
2022/03/23 11:08:19;;;;;;;19.47;3.47;;;21.40;69.10;;;;;;5050463;28;20247;-75
2022/03/23 11:16:27;;;;;;;20.93;4.10;;;21.40;69.40;;;;;;5045019;28;20218;-77
2022/03/23 11:19:13;;;;;;;26.43;3.97;;;21.40;69.50;;;;;;5047902;28;20571;-78
2022/03/23 11:22:01;;;;;;;20.03;3.97;;;21.40;69.30;;;;;;5048840;28;20215;-77
2022/03/23 11:24:40;;;;;;;22.60;4.10;;;21.50;69.10;;;;;;5038417;28;20218;-80
2022/03/23 11:27:18;;;;;;;21.27;3.90;;;21.40;68.80;;;;;;5042727;28;20263;-78
2022/03/23 11:29:47;;;;;;;18.93;3.47;;;21.40;68.80;;;;;;5054875;28;20183;-77
2022/03/23 11:32:24;;;;;;;18.40;3.57;;;21.40;68.90;;;;;;5053432;28;20639;-77
2022/03/23 11:34:55;;;;;;;19.20;3.10;;;21.40;68.80;;;;;;5054037;28;20219;-79
2022/03/23 11:37:27;;;;;;;20.30;4.93;;;21.40;68.80;;;;;;5048165;28;20573;-78
2022/03/23 11:39:54;;;;;;;21.30;4.57;;;21.40;69.00;;;;;;5034556;28;20254;-85
2022/03/23 11:42:24;;;;;;;18.13;3.67;;;21.40;68.30;;;;;;5052821;28;20215;-76
2022/03/23 11:44:52;;;;;;;13.47;3.17;;;21.40;68.50;;;;;;5050680;28;20271;-76
2022/03/23 11:47:34;;;;;;;17.37;3.37;;;21.40;68.10;;;;;;5045731;28;20562;-78
2022/03/23 11:50:30;;;;;;;17.97;3.17;;;21.40;68.40;;;;;;5045235;28;20188;-76
2022/03/23 11:53:07;;;;;;;17.10;3.17;;;21.40;68.00;;;;;;5033939;28;20200;-75
2022/03/23 11:55:50;;;;;;;14.40;3.40;;;21.40;67.90;;;;;;5033253;28;20176;-77
2022/03/23 11:58:21;;;;;;;20.07;3.43;;;21.40;68.40;;;;;;5034383;28;20169;-77
2022/03/23 12:01:07;;;;;;;14.20;3.50;;;21.40;68.60;;;;;;5037621;28;20180;-76
2022/03/23 12:03:49;;;;;;;28.30;4.30;;;21.40;68.90;;;;;;5053492;28;20698;-74
2022/03/23 12:06:19;;;;;;;24.57;3.83;;;21.40;69.30;;;;;;5053909;28;20219;-74
2022/03/23 12:08:52;;;;;;;20.43;3.77;;;21.40;69.20;;;;;;5053541;28;20168;-74
2022/03/23 12:11:49;;;;;;;18.50;3.63;;;21.40;69.60;;;;;;5049786;28;20535;-75
2022/03/23 12:14:27;;;;;;;14.20;3.00;;;21.40;69.40;;;;;;5051624;28;20198;-75
2022/03/23 12:16:56;;;;;;;18.20;3.87;;;21.40;69.20;;;;;;5052071;28;20277;-78
2022/03/23 12:19:32;;;;;;;23.40;3.63;;;21.40;69.20;;;;;;5048481;28;20253;-75
2022/03/23 12:22:05;;;;;;;16.27;3.03;;;21.40;68.90;;;;;;5052297;28;20180;-77
2022/03/23 12:25:04;;;;;;;14.73;2.90;;;21.30;68.80;;;;;;5053540;28;20207;-82
2022/03/23 12:27:53;;;;;;;19.67;3.57;;;21.30;69.00;;;;;;5042791;28;20537;-74
2022/03/23 12:30:26;;;;;;;16.17;3.20;;;21.30;69.00;;;;;;5052311;28;20172;-74
2022/03/23 12:33:00;;;;;;;19.07;3.77;;;21.40;69.20;;;;;;5053236;28;20171;-76
2022/03/23 12:35:37;;;;;;;23.40;4.27;;;21.40;69.20;;;;;;5053990;28;20172;-76
2022/03/23 12:38:17;;;;;;;15.43;3.17;;;21.40;69.20;;;;;;5053259;28;20179;-78
2022/03/23 12:40:46;;;;;;;14.20;2.87;;;21.30;69.00;;;;;;5051350;28;20560;-80
2022/03/23 12:43:39;;;;;;;13.47;3.17;;;21.30;68.40;;;;;;5053532;28;20259;-77
2022/03/23 12:46:22;;;;;;;18.60;2.90;;;21.30;68.00;;;;;;5053462;28;20183;-76
2022/03/23 12:57:50;;;;;;;16.03;4.07;;;21.30;67.40;;;;;;5042915;28;20686;-76
2022/03/23 13:00:27;;;;;;;18.50;3.13;;;21.30;67.70;;;;;;5050507;28;20538;-76
2022/03/23 13:03:09;;;;;;;14.97;3.27;;;21.30;67.10;;;;;;5052764;28;20638;-83
2022/03/23 13:06:02;;;;;;;12.03;3.77;;;21.30;66.30;;;;;;5038349;28;20200;-79
2022/03/23 13:09:02;;;;;;;13.73;2.80;;;21.30;66.00;;;;;;5052614;28;20199;-76
2022/03/23 13:11:29;;;;;;;19.00;2.90;;;21.30;66.30;;;;;;5032699;28;20685;-77
2022/03/23 13:14:01;;;;;;;14.70;2.80;;;21.30;66.60;;;;;;5039099;28;20171;-76
2022/03/23 13:16:36;;;;;;;15.87;3.40;;;21.30;66.30;;;;;;5049867;28;20180;-76
2022/03/23 13:19:07;;;;;;;14.43;2.90;;;21.30;66.00;;;;;;5049095;28;20187;-76